Погода Тамасула-де-Гордианона 2 недели

Халиско, Мексика

26 мая-08 июня
  • 26мая
    Сегодня
    +15°
    +37°
    Ясно и безоблачно
    ВремяПогодаТемператураВлажностьДавлениеВетер, м/сВероятность осадков
    00:00Ясно и безоблачно+21°C56 %664 мм1.4 м/с2 %
    03:00Ясно и безоблачно+19°C61 %663 мм1.2 м/с2 %
    06:00Ясно и безоблачно+17°C58 %662 мм1.1 м/с2 %
    09:00Ясно и безоблачно+25°C30 %664 мм0.4 м/с2 %
    12:00Ясно и безоблачно+35°C17 %665 мм2.4 м/с2 %
    15:00Ясно и безоблачно+34°C28 %663 мм5.4 м/с2 %
    18:00Ясно и безоблачно+29°C31 %663 мм3.8 м/с2 %
    21:00Ясно и безоблачно+24°C44 %664 мм0.9 м/с2 %
  • 27мая
    Понедельник
    +16°
    +37°
    Ясно и безоблачно
    ВремяПогодаТемператураВлажностьДавлениеВетер, м/сВероятность осадков
    00:00Ясно и безоблачно+20°C52 %664 мм0.8 м/с2 %
    03:00Ясно и безоблачно+18°C55 %663 мм0.5 м/с2 %
    06:00Ясно и безоблачно+15°C56 %662 мм0.9 м/с2 %
    09:00Ясно и безоблачно+24°C29 %665 мм0.3 м/с2 %
    12:00Ясно и безоблачно+34°C15 %666 мм1.9 м/с2 %
    15:00Ясно и безоблачно+37°C14 %664 мм4.7 м/с2 %
    18:00Ясно и безоблачно+30°C28 %663 мм3.9 м/с2 %
    21:00Ясно и безоблачно+24°C50 %664 мм1.0 м/с2 %
  • 28мая
    Вторник
    +17°
    +38°
    Ясно и безоблачно
    ВремяПогодаТемператураВлажностьДавлениеВетер, м/сВероятность осадков
    00:00Ясно и безоблачно+21°C50 %665 мм0.5 м/с2 %
    03:00Ясно и безоблачно+19°C52 %663 мм1.1 м/с2 %
    06:00Ясно и безоблачно+16°C54 %663 мм1.2 м/с2 %
    09:00Ясно и безоблачно+25°C28 %666 мм0.2 м/с2 %
    12:00Ясно и безоблачно+36°C16 %667 мм1.8 м/с2 %
    15:00Ясно и безоблачно+38°C15 %665 мм4.6 м/с2 %
    18:00Небольшая облачность+31°C23 %665 мм4.1 м/с2 %
    21:00Небольшая облачность+24°C35 %665 мм0.5 м/с2 %
  • 29мая
    Среда
    +17°
    +38°
    Облачно с прояснениями
    ВремяПогодаТемператураВлажностьДавлениеВетер, м/сВероятность осадков
    00:00Ясно и безоблачно+22°C38 %665 мм0.9 м/с2 %
    03:00Ясно и безоблачно+21°C41 %664 мм0.6 м/с2 %
    06:00Ясно и безоблачно+18°C43 %663 мм0.6 м/с2 %
    09:00Ясно и безоблачно+26°C24 %666 мм0.3 м/с2 %
    12:00Ясно и безоблачно+37°C16 %667 мм2.6 м/с2 %
    15:00Облачно с прояснениями+35°C20 %666 мм4.6 м/с17 %
    18:00Облачно с прояснениями+31°C26 %665 мм4.7 м/с12 %
    21:00Практически безоблачно+26°C41 %666 мм0.6 м/с5 %
Мы используем cookies
Соглашаюсь